• Join FlightAware (Why Join?)
  • Login
  • US Flag 
07:37AM EDT


 

Airport Tracker/Info


-or-


 

Live Flight TrackerFlight Track Log ✈ PDT4207 ✈ 24-Oct-2013 ✈ KPHL - KBGM

Flight Track Log - Related Links

Times and Time Zones

All times are in EDT time to prevent confusion due to time zone crossing. See the PDT4207 flight status page for this flight to view local times or setup timezone preferences in your user account.

Time Position Orientation Groundspeed Altitude Reporting Facility
EDT Latitude Longitude Course Direction KTS MPH feet Rate Location/Type
09:29PM 39.9000 -75.2333 300° West 110 127 700  Level Philadelphia TRACON
09:30PM 39.9167 -75.2833 294° West 110 127 2,500 1,500 Climbing Philadelphia TRACON
09:31PM 39.9167 -75.3167 270° West 110 127 4,000 1,320 Climbing Philadelphia TRACON
09:32PM 40.1494 -75.3258 311° West  Level Estimated
09:32PM 39.9333 -75.3500 303° West 114 131 5,200  Level Philadelphia TRACON
09:33PM 40.1855 -75.4061 300° West  Level FlightAware Approximate
09:33PM 39.9500 -75.3833 303° West 136 157 6,400  Level Philadelphia TRACON
09:34PM 40.2215 -75.4865 300° West  Level FlightAware Approximate
09:34PM 39.9667 -75.4167 303° West 143 165 7,400  Level Philadelphia TRACON
09:35PM 40.0167 -75.4333 346° North 155 178 8,300 1,020 Climbing Philadelphia TRACON
09:35PM 40.0394 -75.4533 326° Northwest 153 176 9,100 960 Climbing New York Center
09:36PM 40.0717 -75.4800 328° Northwest 173 199 10,000 900 Climbing New York Center
09:37PM 40.1164 -75.5100 333° Northwest 173 199 11,000 900 Climbing New York Center
09:38PM 40.1633 -75.5294 342° North 173 199 11,900 480 Climbing New York Center
09:39PM 40.2169 -75.5494 344° North 181 208 12,000  Climbing New York Center
09:40PM 40.2542 -75.6067 310° West 192 221 12,000  Level New York Center
09:41PM 40.2831 -75.6656 303° West 213 245 12,000  Level New York Center
09:42PM 40.3286 -75.7206 317° Northwest 219 252 12,000  Level New York Center
09:43PM 40.3717 -75.7864 311° West 219 252 12,000 300 Level New York Center
09:44PM 40.4042 -75.8514 303° West 219 252 12,700 900 Climbing New York Center
09:45PM 40.4375 -75.9031 310° West 205 236 13,900 600 Climbing New York Center
09:46PM 40.4792 -75.9525 318° Northwest 192 221 14,000  Climbing New York Center
09:47PM 40.5100 -76.0067 307° West 202 232 14,000  Level New York Center
09:48PM 40.5572 -76.0731 313° West 221 254 14,000  Level New York Center
09:49PM 40.6217 -76.0753 359° North 211 243 14,000  Level New York Center
09:50PM 40.6858 -76.0831 355° North 222 255 14,000  Level New York Center
09:51PM 40.7461 -76.0906 355° North 232 267 14,000  Level New York Center
09:52PM 40.8106 -76.0928 359° North 232 267 14,000  Level New York Center
09:53PM 40.8836 -76.0903 North 232 267 14,000  Level New York Center
09:54PM 40.9519 -76.0956 357° North 237 273 14,000  Level New York Center
09:55PM 41.0186 -76.0953 360° North 237 273 14,100  Climbing New York Center
09:56PM 41.0750 -76.0942 North 232 267 14,100  Level New York Center
09:57PM 41.1417 -76.0967 358° North 232 267 14,100  Level New York Center
09:58PM 41.2119 -76.1050 355° North 232 267 14,100  Level New York Center
09:59PM 41.2767 -76.1019 North 232 267 14,100  Level New York Center
10:00PM 41.3411 -76.1042 359° North 232 267 14,100  Level New York Center
10:01PM 41.3994 -76.1086 357° North 232 267 14,100  Level New York Center
10:02PM 41.4678 -76.1142 357° North 232 267 14,100  Level New York Center
10:03PM 41.5389 -76.1117 North 232 267 14,100 -420 Level New York Center
10:04PM 41.6039 -76.1000 North 232 267 13,300 -1,020 Descending New York Center
10:05PM 41.6753 -76.0836 10° North 242 278 12,100 -1,200 Descending New York Center
10:06PM 41.7403 -76.0775 North 258 297 10,900 -1,200 Descending New York Center
10:07PM 41.8114 -76.0667 North 258 297 9,700 -960 Descending New York Center
10:08PM 41.8833 -76.0444 13° North 246 283 9,000 -780 Descending New York Center
10:09PM 41.9486 -76.0300 North 240 276 8,200 -1,200 Descending New York Center
10:10PM 42.0156 -76.0189 North 241 277 6,700 -1,740 Descending New York Center
10:11PM 42.0683 -76.0033 12° North 232 267 4,800 -1,620 Descending New York Center
10:12PM 42.1119 -75.9592 37° Northeast 217 250 3,500 -960 Descending New York Center
10:13PM 42.1425 -75.9281 37° Northeast 168 193 2,900 -600 Descending New York Center
10:14PM 42.1667 -75.9467 330° Northwest 106 122 2,300 -420 Descending New York Center
10:15PM 42.1978 -75.9492 357° North 100 115 2,100 -240 Descending New York Center